createdAt,value
2022-12-20T00:07:02.504Z,39.40
2022-12-20T00:17:02.876Z,32.30
2022-12-20T00:27:02.915Z,34.90
2022-12-20T00:37:03.354Z,31.60
2022-12-20T00:47:03.451Z,31.70
2022-12-20T00:57:03.939Z,31.90
2022-12-20T01:07:03.792Z,29.30
2022-12-20T01:17:04.201Z,24.40
2022-12-20T01:27:04.138Z,23.50
2022-12-20T01:37:04.514Z,10.30
2022-12-20T01:47:04.562Z,11.20
2022-12-20T01:57:05.038Z,10.60
2022-12-20T02:07:04.987Z,6.80
2022-12-20T02:17:05.430Z,5.70
2022-12-20T02:27:05.473Z,6.40
2022-12-20T02:37:05.878Z,6.00
2022-12-20T02:47:05.917Z,6.10
2022-12-20T02:57:06.250Z,5.00
2022-12-20T03:07:06.291Z,9.80
2022-12-20T03:17:06.724Z,7.80
2022-12-20T03:27:06.618Z,7.00
2022-12-20T03:37:08.005Z,12.80
2022-12-20T03:47:07.171Z,8.70
2022-12-20T03:57:07.355Z,5.80
2022-12-20T04:07:07.397Z,5.10
2022-12-20T04:17:08.876Z,8.40
2022-12-20T04:27:07.921Z,6.30
2022-12-20T04:37:08.205Z,7.00
2022-12-20T04:47:08.249Z,5.90
2022-12-20T04:57:13.689Z,6.20
2022-12-20T05:07:08.767Z,6.00
2022-12-20T05:17:08.947Z,7.20
2022-12-20T05:27:08.986Z,5.40
2022-12-20T05:37:10.334Z,4.90
2022-12-20T05:47:09.436Z,4.90
2022-12-20T05:57:09.685Z,5.30
2022-12-20T06:07:09.731Z,6.90
2022-12-20T06:17:10.058Z,7.90
2022-12-20T06:27:10.087Z,8.50
2022-12-20T06:37:10.429Z,9.80
2022-12-20T06:47:10.502Z,8.40
2022-12-20T06:57:10.823Z,8.50
2022-12-20T07:07:10.861Z,5.40
2022-12-20T07:17:11.265Z,5.40
2022-12-20T07:27:11.373Z,5.80
2022-12-20T07:37:11.635Z,6.60
2022-12-20T07:47:11.894Z,7.10
2022-12-20T07:57:12.213Z,8.60
2022-12-20T08:07:12.236Z,6.00
2022-12-20T08:17:12.557Z,8.60
2022-12-20T08:27:12.616Z,6.80
2022-12-20T08:37:15.260Z,9.70
2022-12-20T08:47:13.029Z,6.10
2022-12-20T08:57:13.326Z,6.80
2022-12-20T09:07:13.399Z,5.20
2022-12-20T09:17:13.513Z,7.00
2022-12-20T09:27:13.735Z,5.60
2022-12-20T09:37:14.069Z,5.30
2022-12-20T09:47:14.216Z,4.40
2022-12-20T09:57:14.334Z,11.10
2022-12-20T10:07:14.371Z,11.10
2022-12-20T10:17:14.713Z,13.40
2022-12-20T10:27:14.747Z,13.10
2022-12-20T10:37:15.086Z,10.30
2022-12-20T10:47:15.114Z,13.70
2022-12-20T10:57:15.365Z,20.90
2022-12-20T11:07:15.627Z,19.00
2022-12-20T11:17:15.861Z,21.00
2022-12-20T11:27:16.155Z,15.90
2022-12-20T11:37:16.293Z,13.20
2022-12-20T11:47:16.423Z,18.10
2022-12-20T11:57:16.586Z,18.30
2022-12-20T12:07:16.606Z,22.10
2022-12-20T12:17:16.938Z,21.00
2022-12-20T12:27:16.981Z,29.00
2022-12-20T12:37:17.298Z,27.10
2022-12-20T12:47:17.348Z,19.50
2022-12-20T12:57:17.677Z,18.00
2022-12-20T13:07:17.706Z,20.80
2022-12-20T13:17:24.157Z,28.20
2022-12-20T13:27:19.105Z,26.40
2022-12-20T13:37:18.412Z,28.70
2022-12-20T13:47:18.463Z,33.70
2022-12-20T13:57:18.776Z,34.00
2022-12-20T14:07:18.821Z,31.00
2022-12-20T14:17:19.227Z,33.00
2022-12-20T14:27:19.283Z,35.40
2022-12-20T14:37:19.621Z,40.20
2022-12-20T14:47:19.649Z,47.40
2022-12-20T14:57:20.011Z,44.70
2022-12-20T15:07:25.877Z,46.80
2022-12-20T15:17:21.342Z,47.40
2022-12-20T15:27:20.741Z,43.50
2022-12-20T15:37:20.849Z,51.90
2022-12-20T15:47:21.026Z,41.80
2022-12-20T15:57:21.061Z,37.30
2022-12-20T16:07:21.414Z,32.20
2022-12-20T16:17:21.463Z,35.80
2022-12-20T16:27:21.776Z,35.20
2022-12-20T16:37:21.826Z,24.20
2022-12-20T16:47:22.193Z,32.10
2022-12-20T16:57:22.337Z,21.80
2022-12-20T17:07:23.412Z,18.40
2022-12-20T17:17:22.499Z,20.00
2022-12-20T17:27:22.589Z,14.70
2022-12-20T17:37:22.635Z,13.90
2022-12-20T17:47:22.932Z,23.20
2022-12-20T17:57:22.962Z,21.10
2022-12-20T18:07:28.440Z,18.20
2022-12-20T18:17:23.478Z,18.40
2022-12-20T18:27:30.370Z,18.20
2022-12-20T18:37:24.943Z,14.40
2022-12-20T18:47:24.351Z,20.50
2022-12-20T18:57:24.562Z,14.30
2022-12-20T19:07:24.856Z,13.50
2022-12-20T19:17:24.709Z,13.40
2022-12-20T19:27:25.102Z,13.50
2022-12-20T19:37:24.994Z,10.10
2022-12-20T19:47:25.461Z,10.10
2022-12-20T19:57:25.325Z,10.80
2022-12-20T20:07:27.693Z,12.90
2022-12-20T20:17:25.740Z,12.50
2022-12-20T20:27:26.102Z,10.50
2022-12-20T20:37:26.131Z,10.50
2022-12-20T20:47:27.656Z,12.30
2022-12-20T20:57:26.691Z,9.20
2022-12-20T21:07:26.851Z,10.90
2022-12-20T21:17:27.114Z,16.60
2022-12-20T21:27:27.209Z,20.40
2022-12-20T21:37:27.252Z,15.00
2022-12-20T21:47:27.583Z,11.50
2022-12-20T21:57:27.606Z,19.60
2022-12-20T22:07:27.973Z,22.60
2022-12-20T22:17:27.990Z,21.40
2022-12-20T22:27:28.437Z,21.30
2022-12-20T22:37:28.467Z,16.10
